Aérodrome :
LOGIN :

S'inscrire | Disclaimer

   EN    FR    IT 

 










Légende :    VFR   VFR Marginal   IFR   IFR Intensif   IFR Très Intensif
Visi : 
Plafond : 
>= 8 km
>= 3000ft
5 à 8 km
1000 à 3000 ft
1500m à 5 km
500 à 1000 ft
800 à 1500m
200 à 500 ft
< 800m
< 200 ft
Symboles :   Orages  Brouillard  Fortes neiges  Fortes précipitations  Vent > 20 kt
SIGMETs :   Divers  Orages  Givrage  Turbulence  Onde Orograph.  Cendres Volcan.






- Altitude de l'aérodrome : 24 ft
- Code IATA : IBZ


LEIB - Ibiza

DERNIER METAR :
  • 190230Z 23011KT 9999 SCT015 23/20 Q1010 NOSIG

METARs EXPIRÉS :
  • 190200Z 21011KT 180V250 9999 SCT013 23/20 Q1010 NOSIG
  • 190130Z 22011KT 190V250 9999 SCT012 23/20 Q1011 NOSIG
  • 190100Z 22010KT 9999 FEW012 23/20 Q1011 NOSIG
  • 190030Z 23009KT CAVOK 22/20 Q1011 NOSIG
  • 190000Z 23009KT CAVOK 23/20 Q1011 NOSIG
  • 182330Z 24009KT 9999 FEW008 23/21 Q1011 NOSIG
  • 182300Z 24009KT 9999 FEW008 23/21 Q1012 NOSIG
  • 182230Z 23009KT 9999 FEW008 23/21 Q1012 NOSIG
  • 182200Z 23009KT 9999 FEW008 23/21 Q1012 NOSIG

TAF TAF LEIB
Valide du 19 à 03h jusqu'au 20 à 03h UTC


190200Z 1903/2003 22009KT 9999 SCT015 TX27/1912Z TN19/1905Z
PROB30
TEMPO 1903/1906 3000 BR
PROB30
TEMPO 1903/1906 TSRA FEW050CB
TEMPO 1918/2003 4000 TSRA FEW050CB



MET'MAP, la Météo Aéronautique d'un coup d'oeil ! - Copyright ORBIFLY Décembre 2007 - Disclaimer

ORBIFLY MET'MAP TEAM :

Programmation & Développement : Alexandra Zaïnal
Sur une idée originale de : Baudouin d'Aumeries
Soutien technique & logistique : Manuel Goepfert
Assistance : Marc-Olivier Méhu




SOURCES & CREDITS :

   NOAA